sensor_id;sensor_type;location;lat;lon;timestamp;temperature;humidity
21123;DHT22;10719;48.130;11.630;2023-04-15T00:00:40;5.10;99.90
21123;DHT22;10719;48.130;11.630;2023-04-15T00:03:06;5.10;99.90
21123;DHT22;10719;48.130;11.630;2023-04-15T00:05:33;5.10;99.90
21123;DHT22;10719;48.130;11.630;2023-04-15T00:07:59;5.10;99.90
21123;DHT22;10719;48.130;11.630;2023-04-15T00:10:26;5.20;99.90
21123;DHT22;10719;48.130;11.630;2023-04-15T00:12:51;5.20;99.90
21123;DHT22;10719;48.130;11.630;2023-04-15T00:15:17;5.20;99.90
21123;DHT22;10719;48.130;11.630;2023-04-15T00:17:43;5.20;99.90
21123;DHT22;10719;48.130;11.630;2023-04-15T00:20:09;5.20;99.90
21123;DHT22;10719;48.130;11.630;2023-04-15T00:22:35;5.20;99.90
21123;DHT22;10719;48.130;11.630;2023-04-15T00:25:01;5.30;99.90
21123;DHT22;10719;48.130;11.630;2023-04-15T00:27:26;5.30;99.90
21123;DHT22;10719;48.130;11.630;2023-04-15T00:29:52;5.30;99.90
21123;DHT22;10719;48.130;11.630;2023-04-15T00:32:18;5.20;99.90
21123;DHT22;10719;48.130;11.630;2023-04-15T00:34:44;5.20;99.90
21123;DHT22;10719;48.130;11.630;2023-04-15T00:37:10;5.30;99.90
21123;DHT22;10719;48.130;11.630;2023-04-15T00:39:37;5.30;99.90
21123;DHT22;10719;48.130;11.630;2023-04-15T00:42:03;5.30;99.90
21123;DHT22;10719;48.130;11.630;2023-04-15T00:44:29;5.30;99.90
21123;DHT22;10719;48.130;11.630;2023-04-15T00:46:56;5.30;99.90
21123;DHT22;10719;48.130;11.630;2023-04-15T00:49:22;5.30;99.90
21123;DHT22;10719;48.130;11.630;2023-04-15T00:51:49;5.30;99.90
21123;DHT22;10719;48.130;11.630;2023-04-15T00:54:14;5.30;99.90
21123;DHT22;10719;48.130;11.630;2023-04-15T00:56:41;5.30;99.90
21123;DHT22;10719;48.130;11.630;2023-04-15T00:59:07;5.30;99.90
21123;DHT22;10719;48.130;11.630;2023-04-15T01:01:35;5.30;99.90
21123;DHT22;10719;48.130;11.630;2023-04-15T01:04:01;5.30;99.90
21123;DHT22;10719;48.130;11.630;2023-04-15T01:06:27;5.30;99.90
21123;DHT22;10719;48.130;11.630;2023-04-15T01:08:54;5.30;99.90
21123;DHT22;10719;48.130;11.630;2023-04-15T01:11:20;5.30;99.90
21123;DHT22;10719;48.130;11.630;2023-04-15T01:13:46;5.40;99.90
21123;DHT22;10719;48.130;11.630;2023-04-15T01:16:13;5.30;99.90
21123;DHT22;10719;48.130;11.630;2023-04-15T01:18:39;5.30;99.90
21123;DHT22;10719;48.130;11.630;2023-04-15T01:21:05;5.40;99.90
21123;DHT22;10719;48.130;11.630;2023-04-15T01:23:35;5.30;99.90
21123;DHT22;10719;48.130;11.630;2023-04-15T01:26:04;5.30;99.90
21123;DHT22;10719;48.130;11.630;2023-04-15T01:28:31;5.30;99.90
21123;DHT22;10719;48.130;11.630;2023-04-15T01:31:14;5.30;99.90
21123;DHT22;10719;48.130;11.630;2023-04-15T01:33:41;5.30;99.90
21123;DHT22;10719;48.130;11.630;2023-04-15T01:36:08;5.30;99.90
21123;DHT22;10719;48.130;11.630;2023-04-15T01:38:34;5.30;99.90
21123;DHT22;10719;48.130;11.630;2023-04-15T01:41:00;5.30;99.90
21123;DHT22;10719;48.130;11.630;2023-04-15T01:43:26;5.30;99.90
21123;DHT22;10719;48.130;11.630;2023-04-15T01:45:53;5.30;99.90
21123;DHT22;10719;48.130;11.630;2023-04-15T01:48:18;5.30;99.90
21123;DHT22;10719;48.130;11.630;2023-04-15T01:50:44;5.30;99.90
21123;DHT22;10719;48.130;11.630;2023-04-15T01:53:10;5.30;99.90
21123;DHT22;10719;48.130;11.630;2023-04-15T01:55:35;5.30;99.90
21123;DHT22;10719;48.130;11.630;2023-04-15T01:58:01;5.40;99.90
21123;DHT22;10719;48.130;11.630;2023-04-15T02:00:27;5.30;99.90
21123;DHT22;10719;48.130;11.630;2023-04-15T02:02:53;5.30;99.90
21123;DHT22;10719;48.130;11.630;2023-04-15T02:05:19;5.30;99.90
21123;DHT22;10719;48.130;11.630;2023-04-15T02:07:44;5.30;99.90
21123;DHT22;10719;48.130;11.630;2023-04-15T02:10:10;5.30;99.90
21123;DHT22;10719;48.130;11.630;2023-04-15T02:12:37;5.30;99.90
21123;DHT22;10719;48.130;11.630;2023-04-15T02:15:04;5.20;99.90
21123;DHT22;10719;48.130;11.630;2023-04-15T02:17:32;5.20;99.90
21123;DHT22;10719;48.130;11.630;2023-04-15T02:19:59;5.20;99.90
21123;DHT22;10719;48.130;11.630;2023-04-15T02:22:25;5.20;99.90
21123;DHT22;10719;48.130;11.630;2023-04-15T02:24:50;5.20;99.90
21123;DHT22;10719;48.130;11.630;2023-04-15T02:27:16;5.30;99.90
21123;DHT22;10719;48.130;11.630;2023-04-15T02:29:43;5.20;99.90
21123;DHT22;10719;48.130;11.630;2023-04-15T02:32:13;5.20;99.90
21123;DHT22;10719;48.130;11.630;2023-04-15T02:34:39;5.20;99.90
21123;DHT22;10719;48.130;11.630;2023-04-15T02:37:10;5.20;99.90
21123;DHT22;10719;48.130;11.630;2023-04-15T02:39:36;5.20;99.90
21123;DHT22;10719;48.130;11.630;2023-04-15T02:42:02;5.20;99.90
21123;DHT22;10719;48.130;11.630;2023-04-15T02:44:28;5.30;99.90
21123;DHT22;10719;48.130;11.630;2023-04-15T02:46:53;5.30;99.90
21123;DHT22;10719;48.130;11.630;2023-04-15T02:49:20;5.30;99.90
21123;DHT22;10719;48.130;11.630;2023-04-15T02:51:46;5.30;99.90
21123;DHT22;10719;48.130;11.630;2023-04-15T02:54:16;5.30;99.90
21123;DHT22;10719;48.130;11.630;2023-04-15T02:56:42;5.30;99.90
21123;DHT22;10719;48.130;11.630;2023-04-15T02:59:07;5.30;99.90
21123;DHT22;10719;48.130;11.630;2023-04-15T03:01:33;5.30;99.90
21123;DHT22;10719;48.130;11.630;2023-04-15T03:03:58;5.30;99.90
21123;DHT22;10719;48.130;11.630;2023-04-15T03:06:24;5.30;99.90
21123;DHT22;10719;48.130;11.630;2023-04-15T03:08:49;5.30;99.90
21123;DHT22;10719;48.130;11.630;2023-04-15T03:11:15;5.30;99.90
21123;DHT22;10719;48.130;11.630;2023-04-15T03:13:41;5.40;99.90
21123;DHT22;10719;48.130;11.630;2023-04-15T03:16:08;5.40;99.90
21123;DHT22;10719;48.130;11.630;2023-04-15T03:18:33;5.40;99.90
21123;DHT22;10719;48.130;11.630;2023-04-15T03:20:59;5.40;99.90
21123;DHT22;10719;48.130;11.630;2023-04-15T03:23:24;5.40;99.90
21123;DHT22;10719;48.130;11.630;2023-04-15T03:25:50;5.40;99.90
21123;DHT22;10719;48.130;11.630;2023-04-15T03:28:16;5.40;99.90
21123;DHT22;10719;48.130;11.630;2023-04-15T03:30:41;5.40;99.90
21123;DHT22;10719;48.130;11.630;2023-04-15T03:33:07;5.40;99.90
21123;DHT22;10719;48.130;11.630;2023-04-15T03:35:33;5.40;99.90
21123;DHT22;10719;48.130;11.630;2023-04-15T03:37:59;5.40;99.90
21123;DHT22;10719;48.130;11.630;2023-04-15T03:40:24;5.50;99.90
21123;DHT22;10719;48.130;11.630;2023-04-15T03:42:50;5.50;99.90
21123;DHT22;10719;48.130;11.630;2023-04-15T03:45:16;5.40;99.90
21123;DHT22;10719;48.130;11.630;2023-04-15T03:47:41;5.40;99.90
21123;DHT22;10719;48.130;11.630;2023-04-15T03:50:07;5.50;99.90
21123;DHT22;10719;48.130;11.630;2023-04-15T03:52:33;5.50;99.90
21123;DHT22;10719;48.130;11.630;2023-04-15T03:54:59;5.40;99.90
21123;DHT22;10719;48.130;11.630;2023-04-15T03:57:24;5.40;99.90
21123;DHT22;10719;48.130;11.630;2023-04-15T03:59:50;5.40;99.90
21123;DHT22;10719;48.130;11.630;2023-04-15T04:02:15;5.40;99.90
21123;DHT22;10719;48.130;11.630;2023-04-15T04:04:41;5.40;99.90
21123;DHT22;10719;48.130;11.630;2023-04-15T04:07:08;5.40;99.90
21123;DHT22;10719;48.130;11.630;2023-04-15T04:09:33;5.40;99.90
21123;DHT22;10719;48.130;11.630;2023-04-15T04:11:59;5.40;99.90
21123;DHT22;10719;48.130;11.630;2023-04-15T04:14:25;5.40;99.90
21123;DHT22;10719;48.130;11.630;2023-04-15T04:16:54;5.40;99.90
21123;DHT22;10719;48.130;11.630;2023-04-15T04:19:20;5.40;99.90
21123;DHT22;10719;48.130;11.630;2023-04-15T04:21:45;5.40;99.90
21123;DHT22;10719;48.130;11.630;2023-04-15T04:24:11;5.40;99.90
21123;DHT22;10719;48.130;11.630;2023-04-15T04:26:36;5.40;99.90
21123;DHT22;10719;48.130;11.630;2023-04-15T04:29:02;5.40;99.90
21123;DHT22;10719;48.130;11.630;2023-04-15T04:31:28;5.40;99.90
21123;DHT22;10719;48.130;11.630;2023-04-15T04:33:53;5.40;99.90
21123;DHT22;10719;48.130;11.630;2023-04-15T04:36:19;5.40;99.90
21123;DHT22;10719;48.130;11.630;2023-04-15T04:38:44;5.30;99.90
21123;DHT22;10719;48.130;11.630;2023-04-15T04:41:10;5.30;99.90
21123;DHT22;10719;48.130;11.630;2023-04-15T04:43:35;5.30;99.90
21123;DHT22;10719;48.130;11.630;2023-04-15T04:46:01;5.30;99.90
21123;DHT22;10719;48.130;11.630;2023-04-15T04:48:27;5.30;99.90
21123;DHT22;10719;48.130;11.630;2023-04-15T04:50:52;5.30;99.90
21123;DHT22;10719;48.130;11.630;2023-04-15T04:53:18;5.30;99.90
21123;DHT22;10719;48.130;11.630;2023-04-15T04:55:44;5.40;99.90
21123;DHT22;10719;48.130;11.630;2023-04-15T04:58:10;5.40;99.90
21123;DHT22;10719;48.130;11.630;2023-04-15T05:00:36;5.40;99.90
21123;DHT22;10719;48.130;11.630;2023-04-15T05:03:02;5.40;99.90
21123;DHT22;10719;48.130;11.630;2023-04-15T05:05:28;5.40;99.90
21123;DHT22;10719;48.130;11.630;2023-04-15T05:07:54;5.40;99.90
21123;DHT22;10719;48.130;11.630;2023-04-15T05:10:19;5.40;99.90
21123;DHT22;10719;48.130;11.630;2023-04-15T05:12:46;5.40;99.90
21123;DHT22;10719;48.130;11.630;2023-04-15T05:15:11;5.40;99.90
21123;DHT22;10719;48.130;11.630;2023-04-15T05:17:37;5.40;99.90
21123;DHT22;10719;48.130;11.630;2023-04-15T05:20:03;5.40;99.90
21123;DHT22;10719;48.130;11.630;2023-04-15T05:22:28;5.50;99.90
21123;DHT22;10719;48.130;11.630;2023-04-15T05:24:54;5.50;99.90
21123;DHT22;10719;48.130;11.630;2023-04-15T05:27:20;5.40;99.90
21123;DHT22;10719;48.130;11.630;2023-04-15T05:29:47;5.50;99.90
21123;DHT22;10719;48.130;11.630;2023-04-15T05:32:13;5.50;99.90
21123;DHT22;10719;48.130;11.630;2023-04-15T05:34:38;5.60;99.90
21123;DHT22;10719;48.130;11.630;2023-04-15T05:37:04;5.60;99.90
21123;DHT22;10719;48.130;11.630;2023-04-15T05:39:30;5.50;99.90
21123;DHT22;10719;48.130;11.630;2023-04-15T05:41:56;5.60;99.90
21123;DHT22;10719;48.130;11.630;2023-04-15T05:44:22;5.60;99.90
21123;DHT22;10719;48.130;11.630;2023-04-15T05:46:48;5.60;99.90
21123;DHT22;10719;48.130;11.630;2023-04-15T05:49:13;5.60;99.90
21123;DHT22;10719;48.130;11.630;2023-04-15T05:51:39;5.60;99.90
21123;DHT22;10719;48.130;11.630;2023-04-15T05:54:05;5.60;99.90
21123;DHT22;10719;48.130;11.630;2023-04-15T05:56:31;5.60;99.90
21123;DHT22;10719;48.130;11.630;2023-04-15T05:58:57;5.60;99.90
21123;DHT22;10719;48.130;11.630;2023-04-15T06:01:22;5.70;99.90
21123;DHT22;10719;48.130;11.630;2023-04-15T06:03:48;5.70;99.90
21123;DHT22;10719;48.130;11.630;2023-04-15T06:06:14;5.70;99.90
21123;DHT22;10719;48.130;11.630;2023-04-15T06:08:40;5.80;99.90
21123;DHT22;10719;48.130;11.630;2023-04-15T06:11:05;5.80;99.90
21123;DHT22;10719;48.130;11.630;2023-04-15T06:13:31;5.80;99.90
21123;DHT22;10719;48.130;11.630;2023-04-15T06:15:57;5.80;99.90
21123;DHT22;10719;48.130;11.630;2023-04-15T06:18:22;5.90;99.90
21123;DHT22;10719;48.130;11.630;2023-04-15T06:20:48;6.00;99.90
21123;DHT22;10719;48.130;11.630;2023-04-15T06:23:14;5.90;99.90
21123;DHT22;10719;48.130;11.630;2023-04-15T06:25:39;5.90;99.90
21123;DHT22;10719;48.130;11.630;2023-04-15T06:28:05;6.00;99.90
21123;DHT22;10719;48.130;11.630;2023-04-15T06:30:31;6.00;99.90
21123;DHT22;10719;48.130;11.630;2023-04-15T06:32:56;6.10;99.90
21123;DHT22;10719;48.130;11.630;2023-04-15T06:35:22;6.10;99.90
21123;DHT22;10719;48.130;11.630;2023-04-15T06:37:47;6.10;99.90
21123;DHT22;10719;48.130;11.630;2023-04-15T06:40:13;6.20;99.90
21123;DHT22;10719;48.130;11.630;2023-04-15T06:42:39;6.30;99.90
21123;DHT22;10719;48.130;11.630;2023-04-15T06:45:05;6.30;99.90
21123;DHT22;10719;48.130;11.630;2023-04-15T06:47:31;6.40;99.90
21123;DHT22;10719;48.130;11.630;2023-04-15T06:49:56;6.40;99.90
21123;DHT22;10719;48.130;11.630;2023-04-15T06:52:22;6.50;99.90
21123;DHT22;10719;48.130;11.630;2023-04-15T06:54:47;6.50;99.90
21123;DHT22;10719;48.130;11.630;2023-04-15T06:57:13;6.60;99.90
21123;DHT22;10719;48.130;11.630;2023-04-15T06:59:38;6.60;99.90
21123;DHT22;10719;48.130;11.630;2023-04-15T07:02:04;6.60;99.90
21123;DHT22;10719;48.130;11.630;2023-04-15T07:04:32;6.60;99.90
21123;DHT22;10719;48.130;11.630;2023-04-15T07:06:57;6.70;99.90
21123;DHT22;10719;48.130;11.630;2023-04-15T07:09:26;6.80;99.90
21123;DHT22;10719;48.130;11.630;2023-04-15T07:11:52;6.80;99.90
21123;DHT22;10719;48.130;11.630;2023-04-15T07:14:17;7.00;99.90
21123;DHT22;10719;48.130;11.630;2023-04-15T07:16:43;7.20;99.90
21123;DHT22;10719;48.130;11.630;2023-04-15T07:19:09;7.30;99.90
21123;DHT22;10719;48.130;11.630;2023-04-15T07:21:34;7.30;99.90
21123;DHT22;10719;48.130;11.630;2023-04-15T07:24:00;7.40;99.90
21123;DHT22;10719;48.130;11.630;2023-04-15T07:26:25;7.50;99.90
21123;DHT22;10719;48.130;11.630;2023-04-15T07:28:51;7.50;99.90
21123;DHT22;10719;48.130;11.630;2023-04-15T07:31:17;7.60;99.90
21123;DHT22;10719;48.130;11.630;2023-04-15T07:33:42;7.70;99.90
21123;DHT22;10719;48.130;11.630;2023-04-15T07:36:08;7.80;99.90
21123;DHT22;10719;48.130;11.630;2023-04-15T07:38:34;7.90;99.90
21123;DHT22;10719;48.130;11.630;2023-04-15T07:41:00;7.80;99.90
21123;DHT22;10719;48.130;11.630;2023-04-15T07:43:26;7.80;99.90
21123;DHT22;10719;48.130;11.630;2023-04-15T07:45:51;7.90;99.90
21123;DHT22;10719;48.130;11.630;2023-04-15T07:48:17;7.90;99.90
21123;DHT22;10719;48.130;11.630;2023-04-15T07:50:43;8.00;99.90
21123;DHT22;10719;48.130;11.630;2023-04-15T07:53:08;8.00;99.90
21123;DHT22;10719;48.130;11.630;2023-04-15T07:55:34;8.00;99.90
21123;DHT22;10719;48.130;11.630;2023-04-15T07:57:59;8.00;99.90
21123;DHT22;10719;48.130;11.630;2023-04-15T08:00:25;8.00;99.90
21123;DHT22;10719;48.130;11.630;2023-04-15T08:02:51;8.10;99.90
21123;DHT22;10719;48.130;11.630;2023-04-15T08:05:18;8.20;99.90
21123;DHT22;10719;48.130;11.630;2023-04-15T08:07:44;8.60;99.90
21123;DHT22;10719;48.130;11.630;2023-04-15T08:10:09;8.60;99.90
21123;DHT22;10719;48.130;11.630;2023-04-15T08:12:36;8.90;99.90
21123;DHT22;10719;48.130;11.630;2023-04-15T08:15:02;8.90;99.90
21123;DHT22;10719;48.130;11.630;2023-04-15T08:17:27;9.10;99.90
21123;DHT22;10719;48.130;11.630;2023-04-15T08:19:53;9.10;99.90
21123;DHT22;10719;48.130;11.630;2023-04-15T08:22:19;9.20;99.90
21123;DHT22;10719;48.130;11.630;2023-04-15T08:24:44;9.40;99.90
21123;DHT22;10719;48.130;11.630;2023-04-15T08:27:10;9.30;99.90
21123;DHT22;10719;48.130;11.630;2023-04-15T08:29:36;9.50;99.90
21123;DHT22;10719;48.130;11.630;2023-04-15T08:32:02;9.40;99.90
21123;DHT22;10719;48.130;11.630;2023-04-15T08:34:28;9.60;99.90
21123;DHT22;10719;48.130;11.630;2023-04-15T08:36:54;9.50;99.90
21123;DHT22;10719;48.130;11.630;2023-04-15T08:39:20;9.50;99.90
21123;DHT22;10719;48.130;11.630;2023-04-15T08:41:50;9.40;99.90
21123;DHT22;10719;48.130;11.630;2023-04-15T08:44:16;9.50;99.90
21123;DHT22;10719;48.130;11.630;2023-04-15T08:46:42;9.40;99.90
21123;DHT22;10719;48.130;11.630;2023-04-15T08:49:12;9.20;99.90
21123;DHT22;10719;48.130;11.630;2023-04-15T08:51:41;9.10;99.90
21123;DHT22;10719;48.130;11.630;2023-04-15T08:54:10;9.00;99.90
21123;DHT22;10719;48.130;11.630;2023-04-15T08:56:38;9.10;99.90
21123;DHT22;10719;48.130;11.630;2023-04-15T08:59:03;9.20;99.90
21123;DHT22;10719;48.130;11.630;2023-04-15T09:01:31;9.30;99.90
21123;DHT22;10719;48.130;11.630;2023-04-15T09:03:58;9.40;99.90
21123;DHT22;10719;48.130;11.630;2023-04-15T09:06:24;9.30;99.90
21123;DHT22;10719;48.130;11.630;2023-04-15T09:08:50;9.30;99.90
21123;DHT22;10719;48.130;11.630;2023-04-15T09:11:16;9.20;99.90
21123;DHT22;10719;48.130;11.630;2023-04-15T09:13:42;9.30;99.90
21123;DHT22;10719;48.130;11.630;2023-04-15T09:16:08;9.30;99.90
21123;DHT22;10719;48.130;11.630;2023-04-15T09:18:35;9.30;99.90
21123;DHT22;10719;48.130;11.630;2023-04-15T09:23:57;9.70;99.90
21123;DHT22;10719;48.130;11.630;2023-04-15T09:26:33;9.70;99.90
21123;DHT22;10719;48.130;11.630;2023-04-15T09:29:09;9.90;99.90
21123;DHT22;10719;48.130;11.630;2023-04-15T09:31:38;10.00;99.90
21123;DHT22;10719;48.130;11.630;2023-04-15T09:34:05;9.90;99.90
21123;DHT22;10719;48.130;11.630;2023-04-15T09:39:12;9.30;99.90
21123;DHT22;10719;48.130;11.630;2023-04-15T09:41:38;9.60;99.90
21123;DHT22;10719;48.130;11.630;2023-04-15T09:44:04;9.60;99.90
21123;DHT22;10719;48.130;11.630;2023-04-15T09:46:43;9.70;99.90
21123;DHT22;10719;48.130;11.630;2023-04-15T09:49:10;9.90;99.90
21123;DHT22;10719;48.130;11.630;2023-04-15T09:51:36;9.90;99.90
21123;DHT22;10719;48.130;11.630;2023-04-15T09:54:02;9.80;99.90
21123;DHT22;10719;48.130;11.630;2023-04-15T09:56:35;9.70;99.90
21123;DHT22;10719;48.130;11.630;2023-04-15T09:59:07;9.40;99.90
21123;DHT22;10719;48.130;11.630;2023-04-15T10:01:33;9.50;99.90
21123;DHT22;10719;48.130;11.630;2023-04-15T10:04:02;9.50;99.90
21123;DHT22;10719;48.130;11.630;2023-04-15T10:06:28;9.50;99.90
21123;DHT22;10719;48.130;11.630;2023-04-15T10:08:55;9.30;99.90
21123;DHT22;10719;48.130;11.630;2023-04-15T10:11:21;9.20;99.90
21123;DHT22;10719;48.130;11.630;2023-04-15T10:13:49;9.10;99.90
21123;DHT22;10719;48.130;11.630;2023-04-15T10:16:18;9.20;99.90
21123;DHT22;10719;48.130;11.630;2023-04-15T10:18:46;9.30;99.90
21123;DHT22;10719;48.130;11.630;2023-04-15T10:21:12;9.20;99.90
21123;DHT22;10719;48.130;11.630;2023-04-15T10:23:40;9.40;99.90
21123;DHT22;10719;48.130;11.630;2023-04-15T10:26:06;9.50;99.90
21123;DHT22;10719;48.130;11.630;2023-04-15T10:28:33;9.50;99.90
21123;DHT22;10719;48.130;11.630;2023-04-15T10:30:59;9.60;99.90
21123;DHT22;10719;48.130;11.630;2023-04-15T10:33:26;9.80;99.90
21123;DHT22;10719;48.130;11.630;2023-04-15T10:35:55;9.80;99.90
21123;DHT22;10719;48.130;11.630;2023-04-15T10:41:22;9.70;99.90
21123;DHT22;10719;48.130;11.630;2023-04-15T10:43:50;9.80;99.90
21123;DHT22;10719;48.130;11.630;2023-04-15T10:46:42;9.80;99.90
21123;DHT22;10719;48.130;11.630;2023-04-15T10:49:15;9.80;99.90
21123;DHT22;10719;48.130;11.630;2023-04-15T10:51:48;9.70;99.90
21123;DHT22;10719;48.130;11.630;2023-04-15T10:54:32;9.80;99.90
21123;DHT22;10719;48.130;11.630;2023-04-15T11:02:06;9.70;99.90
21123;DHT22;10719;48.130;11.630;2023-04-15T11:04:54;9.70;99.90
21123;DHT22;10719;48.130;11.630;2023-04-15T11:07:33;9.60;99.90
21123;DHT22;10719;48.130;11.630;2023-04-15T11:09:58;9.70;99.90
21123;DHT22;10719;48.130;11.630;2023-04-15T11:12:34;9.50;99.90
21123;DHT22;10719;48.130;11.630;2023-04-15T11:15:31;9.50;99.90
21123;DHT22;10719;48.130;11.630;2023-04-15T11:17:58;9.30;99.90
21123;DHT22;10719;48.130;11.630;2023-04-15T11:20:24;9.50;99.90
21123;DHT22;10719;48.130;11.630;2023-04-15T11:22:51;9.60;99.90
21123;DHT22;10719;48.130;11.630;2023-04-15T11:25:24;9.70;99.90
21123;DHT22;10719;48.130;11.630;2023-04-15T11:27:51;9.90;99.90
21123;DHT22;10719;48.130;11.630;2023-04-15T11:30:23;9.80;99.90
21123;DHT22;10719;48.130;11.630;2023-04-15T11:32:49;9.80;99.90
21123;DHT22;10719;48.130;11.630;2023-04-15T11:35:16;9.70;99.90
21123;DHT22;10719;48.130;11.630;2023-04-15T11:37:46;9.50;99.90
21123;DHT22;10719;48.130;11.630;2023-04-15T11:40:12;9.20;99.90
21123;DHT22;10719;48.130;11.630;2023-04-15T11:42:39;9.00;99.90
21123;DHT22;10719;48.130;11.630;2023-04-15T11:45:13;9.00;99.90
21123;DHT22;10719;48.130;11.630;2023-04-15T11:47:41;9.00;99.90
21123;DHT22;10719;48.130;11.630;2023-04-15T11:50:17;8.90;99.90
21123;DHT22;10719;48.130;11.630;2023-04-15T11:55:18;9.00;99.90
21123;DHT22;10719;48.130;11.630;2023-04-15T11:57:44;9.00;99.90
21123;DHT22;10719;48.130;11.630;2023-04-15T12:00:10;9.10;99.90
21123;DHT22;10719;48.130;11.630;2023-04-15T12:02:36;9.20;99.90
21123;DHT22;10719;48.130;11.630;2023-04-15T12:05:03;9.10;99.90
21123;DHT22;10719;48.130;11.630;2023-04-15T12:07:29;9.00;99.90
21123;DHT22;10719;48.130;11.630;2023-04-15T12:09:55;9.10;99.90
21123;DHT22;10719;48.130;11.630;2023-04-15T12:12:25;9.20;99.90
21123;DHT22;10719;48.130;11.630;2023-04-15T12:14:51;9.30;99.90
21123;DHT22;10719;48.130;11.630;2023-04-15T12:17:17;9.30;99.90
21123;DHT22;10719;48.130;11.630;2023-04-15T12:19:42;9.30;99.90
21123;DHT22;10719;48.130;11.630;2023-04-15T12:22:14;9.20;99.90
21123;DHT22;10719;48.130;11.630;2023-04-15T12:24:41;9.30;99.90
21123;DHT22;10719;48.130;11.630;2023-04-15T12:27:14;9.40;99.90
21123;DHT22;10719;48.130;11.630;2023-04-15T12:29:41;9.50;99.90
21123;DHT22;10719;48.130;11.630;2023-04-15T12:32:16;9.50;99.90
21123;DHT22;10719;48.130;11.630;2023-04-15T12:34:52;9.60;99.90
21123;DHT22;10719;48.130;11.630;2023-04-15T12:37:19;9.70;99.90
21123;DHT22;10719;48.130;11.630;2023-04-15T12:39:46;9.80;99.90
21123;DHT22;10719;48.130;11.630;2023-04-15T12:42:14;9.80;99.90
21123;DHT22;10719;48.130;11.630;2023-04-15T12:44:40;9.60;99.90
21123;DHT22;10719;48.130;11.630;2023-04-15T12:47:08;9.50;99.90
21123;DHT22;10719;48.130;11.630;2023-04-15T12:49:34;9.60;99.90
21123;DHT22;10719;48.130;11.630;2023-04-15T12:52:01;9.70;99.90
21123;DHT22;10719;48.130;11.630;2023-04-15T12:54:28;9.80;99.90
21123;DHT22;10719;48.130;11.630;2023-04-15T12:56:54;9.80;99.90
21123;DHT22;10719;48.130;11.630;2023-04-15T12:59:20;9.70;99.90
21123;DHT22;10719;48.130;11.630;2023-04-15T13:01:48;9.60;99.90
21123;DHT22;10719;48.130;11.630;2023-04-15T13:04:14;9.50;99.90
21123;DHT22;10719;48.130;11.630;2023-04-15T13:06:40;9.40;99.90
21123;DHT22;10719;48.130;11.630;2023-04-15T13:09:06;9.40;99.90
21123;DHT22;10719;48.130;11.630;2023-04-15T13:11:31;9.30;99.90
21123;DHT22;10719;48.130;11.630;2023-04-15T13:13:59;9.30;99.90
21123;DHT22;10719;48.130;11.630;2023-04-15T13:16:25;9.10;99.90
21123;DHT22;10719;48.130;11.630;2023-04-15T13:18:51;9.10;99.90
21123;DHT22;10719;48.130;11.630;2023-04-15T13:21:17;9.00;99.90
21123;DHT22;10719;48.130;11.630;2023-04-15T13:23:43;9.10;99.90
21123;DHT22;10719;48.130;11.630;2023-04-15T13:26:08;9.20;99.90
21123;DHT22;10719;48.130;11.630;2023-04-15T13:28:34;9.00;99.90
21123;DHT22;10719;48.130;11.630;2023-04-15T13:31:00;9.00;99.90
21123;DHT22;10719;48.130;11.630;2023-04-15T13:33:26;8.90;99.90
21123;DHT22;10719;48.130;11.630;2023-04-15T13:35:52;8.90;99.90
21123;DHT22;10719;48.130;11.630;2023-04-15T13:38:18;9.00;99.90
21123;DHT22;10719;48.130;11.630;2023-04-15T13:40:43;8.90;99.90
21123;DHT22;10719;48.130;11.630;2023-04-15T13:43:09;9.00;99.90
21123;DHT22;10719;48.130;11.630;2023-04-15T13:45:34;9.10;99.90
21123;DHT22;10719;48.130;11.630;2023-04-15T13:48:00;9.10;99.90
21123;DHT22;10719;48.130;11.630;2023-04-15T13:50:27;9.10;99.90
21123;DHT22;10719;48.130;11.630;2023-04-15T13:52:53;9.20;99.90
21123;DHT22;10719;48.130;11.630;2023-04-15T13:55:18;9.00;99.90
21123;DHT22;10719;48.130;11.630;2023-04-15T13:57:44;8.80;99.90
21123;DHT22;10719;48.130;11.630;2023-04-15T14:00:10;8.70;99.90
21123;DHT22;10719;48.130;11.630;2023-04-15T14:02:36;8.60;99.90
21123;DHT22;10719;48.130;11.630;2023-04-15T14:05:02;8.60;99.90
21123;DHT22;10719;48.130;11.630;2023-04-15T14:07:29;8.50;99.90
21123;DHT22;10719;48.130;11.630;2023-04-15T14:09:55;8.50;99.90
21123;DHT22;10719;48.130;11.630;2023-04-15T14:12:21;8.50;99.90
21123;DHT22;10719;48.130;11.630;2023-04-15T14:14:46;8.50;99.90
21123;DHT22;10719;48.130;11.630;2023-04-15T14:17:12;8.50;99.90
21123;DHT22;10719;48.130;11.630;2023-04-15T14:19:38;8.50;99.90
21123;DHT22;10719;48.130;11.630;2023-04-15T14:22:04;8.60;99.90
21123;DHT22;10719;48.130;11.630;2023-04-15T14:24:29;8.60;99.90
21123;DHT22;10719;48.130;11.630;2023-04-15T14:26:55;8.60;99.90
21123;DHT22;10719;48.130;11.630;2023-04-15T14:29:21;8.70;99.90
21123;DHT22;10719;48.130;11.630;2023-04-15T14:31:47;8.50;99.90
21123;DHT22;10719;48.130;11.630;2023-04-15T14:34:14;8.60;99.90
21123;DHT22;10719;48.130;11.630;2023-04-15T14:36:40;8.60;99.90
21123;DHT22;10719;48.130;11.630;2023-04-15T14:39:06;8.60;99.90
21123;DHT22;10719;48.130;11.630;2023-04-15T14:41:32;8.80;99.90
21123;DHT22;10719;48.130;11.630;2023-04-15T14:43:58;8.60;99.90
21123;DHT22;10719;48.130;11.630;2023-04-15T14:46:24;8.60;99.90
21123;DHT22;10719;48.130;11.630;2023-04-15T14:48:50;8.60;99.90
21123;DHT22;10719;48.130;11.630;2023-04-15T14:51:16;8.60;99.90
21123;DHT22;10719;48.130;11.630;2023-04-15T14:53:42;8.50;99.90
21123;DHT22;10719;48.130;11.630;2023-04-15T14:56:08;8.60;99.90
21123;DHT22;10719;48.130;11.630;2023-04-15T14:58:34;8.70;99.90
21123;DHT22;10719;48.130;11.630;2023-04-15T15:01:00;8.70;99.90
21123;DHT22;10719;48.130;11.630;2023-04-15T15:03:27;8.60;99.90
21123;DHT22;10719;48.130;11.630;2023-04-15T15:05:53;8.60;99.90
21123;DHT22;10719;48.130;11.630;2023-04-15T15:08:18;8.50;99.90
21123;DHT22;10719;48.130;11.630;2023-04-15T15:10:44;8.40;99.90
21123;DHT22;10719;48.130;11.630;2023-04-15T15:13:10;8.40;99.90
21123;DHT22;10719;48.130;11.630;2023-04-15T15:15:36;8.40;99.90
21123;DHT22;10719;48.130;11.630;2023-04-15T15:18:04;8.30;99.90
21123;DHT22;10719;48.130;11.630;2023-04-15T15:20:29;8.10;99.90
21123;DHT22;10719;48.130;11.630;2023-04-15T15:22:55;8.00;99.90
21123;DHT22;10719;48.130;11.630;2023-04-15T15:25:21;7.90;99.90
21123;DHT22;10719;48.130;11.630;2023-04-15T15:27:47;7.80;99.90
21123;DHT22;10719;48.130;11.630;2023-04-15T15:30:13;7.70;99.90
21123;DHT22;10719;48.130;11.630;2023-04-15T15:32:39;7.50;99.90
21123;DHT22;10719;48.130;11.630;2023-04-15T15:35:06;7.60;99.90
21123;DHT22;10719;48.130;11.630;2023-04-15T15:37:31;7.40;99.90
21123;DHT22;10719;48.130;11.630;2023-04-15T15:39:57;7.30;99.90
21123;DHT22;10719;48.130;11.630;2023-04-15T15:42:23;7.20;99.90